sensor_id;sensor_type;location;lat;lon;timestamp;P1;durP1;ratioP1;P2;durP2;ratioP2
12591;SDS011;6361;52.120;5.108;2023-07-20T00:01:22;6.03;;;4.20;;
12591;SDS011;6361;52.120;5.108;2023-07-20T00:03:47;7.93;;;4.03;;
12591;SDS011;6361;52.120;5.108;2023-07-20T00:06:20;5.68;;;4.30;;
12591;SDS011;6361;52.120;5.108;2023-07-20T00:08:46;5.75;;;4.30;;
12591;SDS011;6361;52.120;5.108;2023-07-20T00:11:11;4.50;;;3.85;;
12591;SDS011;6361;52.120;5.108;2023-07-20T00:13:38;4.95;;;4.10;;
12591;SDS011;6361;52.120;5.108;2023-07-20T00:16:04;4.20;;;3.80;;
12591;SDS011;6361;52.120;5.108;2023-07-20T00:18:29;4.20;;;3.28;;
12591;SDS011;6361;52.120;5.108;2023-07-20T00:20:55;4.53;;;3.17;;
12591;SDS011;6361;52.120;5.108;2023-07-20T00:23:20;3.08;;;2.67;;
12591;SDS011;6361;52.120;5.108;2023-07-20T00:25:47;3.15;;;2.83;;
12591;SDS011;6361;52.120;5.108;2023-07-20T00:28:13;3.25;;;2.25;;
12591;SDS011;6361;52.120;5.108;2023-07-20T00:30:38;2.83;;;2.10;;
12591;SDS011;6361;52.120;5.108;2023-07-20T00:33:04;2.55;;;2.03;;
12591;SDS011;6361;52.120;5.108;2023-07-20T00:35:30;3.75;;;1.60;;
12591;SDS011;6361;52.120;5.108;2023-07-20T00:37:55;1.85;;;1.63;;
12591;SDS011;6361;52.120;5.108;2023-07-20T00:40:20;1.75;;;1.50;;
12591;SDS011;6361;52.120;5.108;2023-07-20T00:42:46;1.35;;;1.02;;
12591;SDS011;6361;52.120;5.108;2023-07-20T00:45:11;1.27;;;1.10;;
12591;SDS011;6361;52.120;5.108;2023-07-20T00:47:36;1.98;;;1.20;;
12591;SDS011;6361;52.120;5.108;2023-07-20T00:50:02;2.92;;;1.10;;
12591;SDS011;6361;52.120;5.108;2023-07-20T00:52:28;2.10;;;1.33;;
12591;SDS011;6361;52.120;5.108;2023-07-20T00:54:53;2.95;;;1.20;;
12591;SDS011;6361;52.120;5.108;2023-07-20T00:57:21;1.52;;;1.00;;
12591;SDS011;6361;52.120;5.108;2023-07-20T00:59:47;3.45;;;1.25;;
12591;SDS011;6361;52.120;5.108;2023-07-20T01:02:13;3.92;;;1.20;;
12591;SDS011;6361;52.120;5.108;2023-07-20T01:04:38;3.40;;;1.27;;
12591;SDS011;6361;52.120;5.108;2023-07-20T01:09:44;2.55;;;1.38;;
12591;SDS011;6361;52.120;5.108;2023-07-20T01:12:18;2.17;;;1.40;;
12591;SDS011;6361;52.120;5.108;2023-07-20T01:14:45;1.77;;;1.48;;
12591;SDS011;6361;52.120;5.108;2023-07-20T01:17:10;2.05;;;1.23;;
12591;SDS011;6361;52.120;5.108;2023-07-20T01:19:37;2.13;;;1.30;;
12591;SDS011;6361;52.120;5.108;2023-07-20T01:32:58;2.90;;;1.58;;
12591;SDS011;6361;52.120;5.108;2023-07-20T01:35:26;3.17;;;1.48;;
12591;SDS011;6361;52.120;5.108;2023-07-20T01:37:53;4.15;;;1.50;;
12591;SDS011;6361;52.120;5.108;2023-07-20T01:40:20;2.25;;;1.45;;
12591;SDS011;6361;52.120;5.108;2023-07-20T01:42:47;2.20;;;1.40;;
12591;SDS011;6361;52.120;5.108;2023-07-20T01:45:12;2.72;;;1.55;;
12591;SDS011;6361;52.120;5.108;2023-07-20T01:47:38;2.22;;;1.48;;
12591;SDS011;6361;52.120;5.108;2023-07-20T01:50:03;2.20;;;1.52;;
12591;SDS011;6361;52.120;5.108;2023-07-20T01:52:29;2.00;;;1.48;;
12591;SDS011;6361;52.120;5.108;2023-07-20T01:54:55;2.20;;;1.70;;
12591;SDS011;6361;52.120;5.108;2023-07-20T01:57:20;2.97;;;1.88;;
12591;SDS011;6361;52.120;5.108;2023-07-20T01:59:46;2.10;;;1.60;;
12591;SDS011;6361;52.120;5.108;2023-07-20T02:02:11;4.80;;;1.98;;
12591;SDS011;6361;52.120;5.108;2023-07-20T02:04:36;2.10;;;1.73;;
12591;SDS011;6361;52.120;5.108;2023-07-20T02:07:02;2.20;;;1.77;;
12591;SDS011;6361;52.120;5.108;2023-07-20T02:09:27;2.38;;;1.80;;
12591;SDS011;6361;52.120;5.108;2023-07-20T02:11:52;2.53;;;1.85;;
12591;SDS011;6361;52.120;5.108;2023-07-20T02:14:18;2.63;;;1.90;;
12591;SDS011;6361;52.120;5.108;2023-07-20T02:16:43;2.28;;;1.77;;
12591;SDS011;6361;52.120;5.108;2023-07-20T02:19:09;2.60;;;2.00;;
12591;SDS011;6361;52.120;5.108;2023-07-20T02:21:34;2.53;;;1.90;;
12591;SDS011;6361;52.120;5.108;2023-07-20T02:24:00;3.30;;;2.20;;
12591;SDS011;6361;52.120;5.108;2023-07-20T02:26:25;3.90;;;2.20;;
12591;SDS011;6361;52.120;5.108;2023-07-20T02:28:51;3.83;;;1.80;;
12591;SDS011;6361;52.120;5.108;2023-07-20T02:31:16;2.53;;;2.30;;
12591;SDS011;6361;52.120;5.108;2023-07-20T02:33:41;3.03;;;2.30;;
12591;SDS011;6361;52.120;5.108;2023-07-20T02:36:07;4.03;;;2.50;;
12591;SDS011;6361;52.120;5.108;2023-07-20T02:38:32;3.47;;;2.63;;
12591;SDS011;6361;52.120;5.108;2023-07-20T02:40:57;4.20;;;2.75;;
12591;SDS011;6361;52.120;5.108;2023-07-20T02:43:23;4.00;;;2.80;;
12591;SDS011;6361;52.120;5.108;2023-07-20T02:45:49;4.30;;;2.90;;
12591;SDS011;6361;52.120;5.108;2023-07-20T02:48:15;5.00;;;2.72;;
12591;SDS011;6361;52.120;5.108;2023-07-20T02:50:40;4.70;;;3.20;;
12591;SDS011;6361;52.120;5.108;2023-07-20T02:53:06;5.00;;;3.10;;
12591;SDS011;6361;52.120;5.108;2023-07-20T02:55:31;7.03;;;3.20;;
12591;SDS011;6361;52.120;5.108;2023-07-20T02:57:56;6.32;;;3.20;;
12591;SDS011;6361;52.120;5.108;2023-07-20T03:00:22;4.35;;;3.53;;
12591;SDS011;6361;52.120;5.108;2023-07-20T03:02:48;6.30;;;3.30;;
12591;SDS011;6361;52.120;5.108;2023-07-20T03:05:14;5.18;;;3.22;;
12591;SDS011;6361;52.120;5.108;2023-07-20T03:07:40;7.63;;;3.83;;
12591;SDS011;6361;52.120;5.108;2023-07-20T03:10:07;8.18;;;3.92;;
12591;SDS011;6361;52.120;5.108;2023-07-20T03:12:34;4.90;;;4.40;;
12591;SDS011;6361;52.120;5.108;2023-07-20T03:14:59;6.20;;;4.03;;
12591;SDS011;6361;52.120;5.108;2023-07-20T03:17:25;5.95;;;3.90;;
12591;SDS011;6361;52.120;5.108;2023-07-20T03:19:50;6.85;;;4.60;;
12591;SDS011;6361;52.120;5.108;2023-07-20T03:22:15;5.85;;;4.47;;
12591;SDS011;6361;52.120;5.108;2023-07-20T03:24:41;5.03;;;4.53;;
12591;SDS011;6361;52.120;5.108;2023-07-20T03:27:06;4.82;;;4.32;;
12591;SDS011;6361;52.120;5.108;2023-07-20T03:29:32;6.40;;;4.68;;
12591;SDS011;6361;52.120;5.108;2023-07-20T03:31:58;4.93;;;4.40;;
12591;SDS011;6361;52.120;5.108;2023-07-20T03:34:24;6.45;;;4.78;;
12591;SDS011;6361;52.120;5.108;2023-07-20T03:36:52;5.13;;;4.50;;
12591;SDS011;6361;52.120;5.108;2023-07-20T03:39:17;5.88;;;4.82;;
12591;SDS011;6361;52.120;5.108;2023-07-20T03:41:43;6.22;;;5.07;;
12591;SDS011;6361;52.120;5.108;2023-07-20T03:44:08;6.47;;;5.57;;
12591;SDS011;6361;52.120;5.108;2023-07-20T03:46:33;5.97;;;5.28;;
12591;SDS011;6361;52.120;5.108;2023-07-20T03:48:59;6.47;;;5.30;;
12591;SDS011;6361;52.120;5.108;2023-07-20T03:51:25;10.18;;;5.63;;
12591;SDS011;6361;52.120;5.108;2023-07-20T03:53:51;8.70;;;5.40;;
12591;SDS011;6361;52.120;5.108;2023-07-20T03:56:16;6.28;;;5.32;;
12591;SDS011;6361;52.120;5.108;2023-07-20T03:58:42;4.32;;;3.65;;
12591;SDS011;6361;52.120;5.108;2023-07-20T04:01:07;5.13;;;4.18;;
12591;SDS011;6361;52.120;5.108;2023-07-20T04:03:33;6.07;;;4.80;;
12591;SDS011;6361;52.120;5.108;2023-07-20T04:05:58;6.15;;;4.65;;
12591;SDS011;6361;52.120;5.108;2023-07-20T04:08:24;6.60;;;4.57;;
12591;SDS011;6361;52.120;5.108;2023-07-20T04:10:49;6.68;;;4.65;;
12591;SDS011;6361;52.120;5.108;2023-07-20T04:13:15;6.10;;;4.30;;
12591;SDS011;6361;52.120;5.108;2023-07-20T04:15:41;5.20;;;4.05;;
12591;SDS011;6361;52.120;5.108;2023-07-20T04:18:07;4.32;;;3.92;;
12591;SDS011;6361;52.120;5.108;2023-07-20T04:20:32;5.75;;;4.50;;
12591;SDS011;6361;52.120;5.108;2023-07-20T04:22:58;4.30;;;3.72;;
12591;SDS011;6361;52.120;5.108;2023-07-20T04:25:23;6.05;;;4.25;;
12591;SDS011;6361;52.120;5.108;2023-07-20T04:27:49;7.60;;;4.50;;
12591;SDS011;6361;52.120;5.108;2023-07-20T04:30:16;5.75;;;3.75;;
12591;SDS011;6361;52.120;5.108;2023-07-20T04:32:44;4.53;;;4.03;;
12591;SDS011;6361;52.120;5.108;2023-07-20T04:35:16;5.85;;;4.60;;
12591;SDS011;6361;52.120;5.108;2023-07-20T04:37:42;6.70;;;4.40;;
12591;SDS011;6361;52.120;5.108;2023-07-20T04:40:11;5.32;;;3.22;;
12591;SDS011;6361;52.120;5.108;2023-07-20T04:42:40;5.30;;;3.60;;
12591;SDS011;6361;52.120;5.108;2023-07-20T04:45:06;4.18;;;3.53;;
12591;SDS011;6361;52.120;5.108;2023-07-20T04:47:32;5.15;;;3.53;;
12591;SDS011;6361;52.120;5.108;2023-07-20T04:49:57;5.97;;;3.97;;
12591;SDS011;6361;52.120;5.108;2023-07-20T04:52:22;5.72;;;3.50;;
12591;SDS011;6361;52.120;5.108;2023-07-20T04:54:48;3.55;;;2.83;;
12591;SDS011;6361;52.120;5.108;2023-07-20T04:57:14;4.70;;;3.50;;
12591;SDS011;6361;52.120;5.108;2023-07-20T04:59:39;4.40;;;3.92;;
12591;SDS011;6361;52.120;5.108;2023-07-20T05:02:04;3.15;;;2.85;;
12591;SDS011;6361;52.120;5.108;2023-07-20T05:04:30;3.75;;;3.40;;
12591;SDS011;6361;52.120;5.108;2023-07-20T05:06:55;4.22;;;3.20;;
12591;SDS011;6361;52.120;5.108;2023-07-20T05:09:20;3.88;;;2.50;;
12591;SDS011;6361;52.120;5.108;2023-07-20T05:11:46;4.78;;;2.60;;
12591;SDS011;6361;52.120;5.108;2023-07-20T05:14:13;6.57;;;2.83;;
12591;SDS011;6361;52.120;5.108;2023-07-20T05:16:38;3.38;;;2.45;;
12591;SDS011;6361;52.120;5.108;2023-07-20T05:19:04;4.00;;;2.47;;
12591;SDS011;6361;52.120;5.108;2023-07-20T05:21:29;3.25;;;2.20;;
12591;SDS011;6361;52.120;5.108;2023-07-20T05:23:55;4.07;;;2.20;;
12591;SDS011;6361;52.120;5.108;2023-07-20T05:26:20;5.25;;;2.10;;
12591;SDS011;6361;52.120;5.108;2023-07-20T05:28:45;3.60;;;1.92;;
12591;SDS011;6361;52.120;5.108;2023-07-20T05:31:11;3.55;;;1.83;;
12591;SDS011;6361;52.120;5.108;2023-07-20T05:33:36;3.97;;;1.60;;
12591;SDS011;6361;52.120;5.108;2023-07-20T05:36:01;2.45;;;1.50;;
12591;SDS011;6361;52.120;5.108;2023-07-20T05:38:27;2.83;;;1.15;;
12591;SDS011;6361;52.120;5.108;2023-07-20T05:40:52;2.13;;;1.40;;
12591;SDS011;6361;52.120;5.108;2023-07-20T05:43:18;1.98;;;1.05;;
12591;SDS011;6361;52.120;5.108;2023-07-20T05:45:43;3.85;;;1.40;;
12591;SDS011;6361;52.120;5.108;2023-07-20T05:48:10;1.48;;;1.20;;
12591;SDS011;6361;52.120;5.108;2023-07-20T05:50:36;1.77;;;0.95;;
12591;SDS011;6361;52.120;5.108;2023-07-20T05:53:02;1.27;;;0.95;;
12591;SDS011;6361;52.120;5.108;2023-07-20T05:55:28;4.30;;;1.20;;
12591;SDS011;6361;52.120;5.108;2023-07-20T05:57:53;2.40;;;1.08;;
12591;SDS011;6361;52.120;5.108;2023-07-20T06:00:20;5.18;;;1.10;;
12591;SDS011;6361;52.120;5.108;2023-07-20T06:02:51;2.85;;;1.60;;
12591;SDS011;6361;52.120;5.108;2023-07-20T06:05:20;4.10;;;2.90;;
12591;SDS011;6361;52.120;5.108;2023-07-20T06:07:46;8.50;;;5.95;;
12591;SDS011;6361;52.120;5.108;2023-07-20T06:10:11;3.63;;;1.90;;
12591;SDS011;6361;52.120;5.108;2023-07-20T06:12:36;3.47;;;1.48;;
12591;SDS011;6361;52.120;5.108;2023-07-20T06:15:02;1.70;;;0.98;;
12591;SDS011;6361;52.120;5.108;2023-07-20T06:17:29;1.60;;;0.90;;
12591;SDS011;6361;52.120;5.108;2023-07-20T06:19:54;2.20;;;1.05;;
12591;SDS011;6361;52.120;5.108;2023-07-20T06:22:19;5.05;;;1.00;;
12591;SDS011;6361;52.120;5.108;2023-07-20T06:24:45;2.03;;;0.95;;
12591;SDS011;6361;52.120;5.108;2023-07-20T06:27:10;2.17;;;1.08;;
12591;SDS011;6361;52.120;5.108;2023-07-20T06:29:37;2.78;;;0.98;;
12591;SDS011;6361;52.120;5.108;2023-07-20T06:32:04;1.63;;;1.20;;
12591;SDS011;6361;52.120;5.108;2023-07-20T06:34:30;3.38;;;1.20;;
12591;SDS011;6361;52.120;5.108;2023-07-20T06:36:56;2.97;;;1.23;;
12591;SDS011;6361;52.120;5.108;2023-07-20T06:39:21;1.60;;;1.00;;
12591;SDS011;6361;52.120;5.108;2023-07-20T06:41:47;3.30;;;1.10;;
12591;SDS011;6361;52.120;5.108;2023-07-20T06:44:13;1.55;;;1.10;;
12591;SDS011;6361;52.120;5.108;2023-07-20T06:46:38;3.75;;;1.00;;
12591;SDS011;6361;52.120;5.108;2023-07-20T06:49:05;1.88;;;1.10;;
12591;SDS011;6361;52.120;5.108;2023-07-20T06:51:32;3.65;;;1.30;;
12591;SDS011;6361;52.120;5.108;2023-07-20T06:53:57;1.92;;;0.80;;
12591;SDS011;6361;52.120;5.108;2023-07-20T06:56:22;1.85;;;0.80;;
12591;SDS011;6361;52.120;5.108;2023-07-20T06:58:48;3.00;;;0.70;;
12591;SDS011;6361;52.120;5.108;2023-07-20T07:01:13;4.03;;;0.90;;
12591;SDS011;6361;52.120;5.108;2023-07-20T07:03:39;1.58;;;0.60;;
12591;SDS011;6361;52.120;5.108;2023-07-20T07:06:05;1.27;;;0.70;;
12591;SDS011;6361;52.120;5.108;2023-07-20T07:08:30;1.15;;;0.77;;
12591;SDS011;6361;52.120;5.108;2023-07-20T07:10:56;0.93;;;0.70;;
12591;SDS011;6361;52.120;5.108;2023-07-20T07:13:21;6.28;;;0.90;;
12591;SDS011;6361;52.120;5.108;2023-07-20T07:15:47;1.08;;;0.70;;
12591;SDS011;6361;52.120;5.108;2023-07-20T07:18:12;1.00;;;0.70;;
12591;SDS011;6361;52.120;5.108;2023-07-20T07:20:37;3.33;;;0.68;;
12591;SDS011;6361;52.120;5.108;2023-07-20T07:23:03;0.88;;;0.60;;
12591;SDS011;6361;52.120;5.108;2023-07-20T07:25:28;1.08;;;0.70;;
12591;SDS011;6361;52.120;5.108;2023-07-20T07:27:54;1.98;;;1.10;;
12591;SDS011;6361;52.120;5.108;2023-07-20T07:30:21;1.75;;;0.70;;
12591;SDS011;6361;52.120;5.108;2023-07-20T07:32:47;1.40;;;0.80;;
12591;SDS011;6361;52.120;5.108;2023-07-20T07:35:12;1.45;;;0.80;;
12591;SDS011;6361;52.120;5.108;2023-07-20T07:37:38;1.50;;;1.08;;
12591;SDS011;6361;52.120;5.108;2023-07-20T07:40:03;1.63;;;0.80;;
12591;SDS011;6361;52.120;5.108;2023-07-20T07:42:30;2.60;;;0.90;;
12591;SDS011;6361;52.120;5.108;2023-07-20T07:44:56;1.48;;;0.80;;
12591;SDS011;6361;52.120;5.108;2023-07-20T07:47:21;2.28;;;0.68;;
12591;SDS011;6361;52.120;5.108;2023-07-20T07:49:47;1.10;;;0.60;;
12591;SDS011;6361;52.120;5.108;2023-07-20T07:52:12;3.55;;;0.80;;
12591;SDS011;6361;52.120;5.108;2023-07-20T07:54:39;0.70;;;0.70;;
12591;SDS011;6361;52.120;5.108;2023-07-20T07:57:04;2.42;;;0.60;;
12591;SDS011;6361;52.120;5.108;2023-07-20T07:59:30;2.03;;;0.70;;
12591;SDS011;6361;52.120;5.108;2023-07-20T08:02:01;1.50;;;0.98;;
12591;SDS011;6361;52.120;5.108;2023-07-20T08:04:27;1.33;;;0.73;;
12591;SDS011;6361;52.120;5.108;2023-07-20T08:06:52;1.33;;;0.68;;
12591;SDS011;6361;52.120;5.108;2023-07-20T08:09:18;1.55;;;0.68;;
12591;SDS011;6361;52.120;5.108;2023-07-20T08:11:43;1.17;;;0.70;;
12591;SDS011;6361;52.120;5.108;2023-07-20T08:14:08;0.75;;;0.50;;
12591;SDS011;6361;52.120;5.108;2023-07-20T08:16:34;1.15;;;0.60;;
12591;SDS011;6361;52.120;5.108;2023-07-20T08:18:59;1.50;;;0.70;;
12591;SDS011;6361;52.120;5.108;2023-07-20T08:21:24;1.80;;;0.90;;
12591;SDS011;6361;52.120;5.108;2023-07-20T08:23:50;0.75;;;0.70;;
12591;SDS011;6361;52.120;5.108;2023-07-20T08:26:15;1.80;;;0.70;;
12591;SDS011;6361;52.120;5.108;2023-07-20T08:28:41;0.75;;;0.52;;
12591;SDS011;6361;52.120;5.108;2023-07-20T08:31:09;0.60;;;0.60;;
12591;SDS011;6361;52.120;5.108;2023-07-20T08:33:34;0.80;;;0.60;;
12591;SDS011;6361;52.120;5.108;2023-07-20T08:36:00;0.90;;;0.52;;
12591;SDS011;6361;52.120;5.108;2023-07-20T08:38:26;1.70;;;0.70;;
12591;SDS011;6361;52.120;5.108;2023-07-20T08:40:52;0.98;;;0.60;;
12591;SDS011;6361;52.120;5.108;2023-07-20T08:43:19;1.10;;;0.65;;
12591;SDS011;6361;52.120;5.108;2023-07-20T08:45:45;1.38;;;0.60;;
12591;SDS011;6361;52.120;5.108;2023-07-20T08:48:12;0.55;;;0.55;;
12591;SDS011;6361;52.120;5.108;2023-07-20T08:50:37;0.60;;;0.50;;
12591;SDS011;6361;52.120;5.108;2023-07-20T08:53:03;1.40;;;0.90;;
12591;SDS011;6361;52.120;5.108;2023-07-20T08:55:31;1.20;;;0.50;;
12591;SDS011;6361;52.120;5.108;2023-07-20T08:57:57;2.03;;;0.98;;
12591;SDS011;6361;52.120;5.108;2023-07-20T09:00:24;2.00;;;0.60;;
12591;SDS011;6361;52.120;5.108;2023-07-20T09:02:51;1.02;;;0.70;;
12591;SDS011;6361;52.120;5.108;2023-07-20T09:05:18;0.90;;;0.60;;
12591;SDS011;6361;52.120;5.108;2023-07-20T09:07:47;0.73;;;0.60;;
12591;SDS011;6361;52.120;5.108;2023-07-20T09:10:13;2.35;;;0.70;;
12591;SDS011;6361;52.120;5.108;2023-07-20T09:12:39;1.10;;;0.60;;
12591;SDS011;6361;52.120;5.108;2023-07-20T09:15:05;1.45;;;0.70;;
12591;SDS011;6361;52.120;5.108;2023-07-20T09:17:35;1.40;;;0.70;;
12591;SDS011;6361;52.120;5.108;2023-07-20T09:20:07;0.98;;;0.60;;
12591;SDS011;6361;52.120;5.108;2023-07-20T09:22:36;1.67;;;0.65;;
12591;SDS011;6361;52.120;5.108;2023-07-20T09:25:05;2.60;;;0.60;;
12591;SDS011;6361;52.120;5.108;2023-07-20T09:27:39;0.95;;;0.60;;
12591;SDS011;6361;52.120;5.108;2023-07-20T09:30:06;0.95;;;0.60;;
12591;SDS011;6361;52.120;5.108;2023-07-20T09:32:37;3.45;;;0.80;;
12591;SDS011;6361;52.120;5.108;2023-07-20T09:35:05;1.83;;;0.80;;
12591;SDS011;6361;52.120;5.108;2023-07-20T09:37:32;0.85;;;0.75;;
12591;SDS011;6361;52.120;5.108;2023-07-20T09:39:58;1.35;;;0.90;;
12591;SDS011;6361;52.120;5.108;2023-07-20T09:42:24;1.75;;;0.70;;
12591;SDS011;6361;52.120;5.108;2023-07-20T09:44:50;2.40;;;0.85;;
12591;SDS011;6361;52.120;5.108;2023-07-20T09:47:25;3.05;;;1.00;;
12591;SDS011;6361;52.120;5.108;2023-07-20T09:49:57;1.27;;;0.80;;
12591;SDS011;6361;52.120;5.108;2023-07-20T09:52:24;4.80;;;0.77;;
12591;SDS011;6361;52.120;5.108;2023-07-20T09:54:50;1.27;;;0.88;;
12591;SDS011;6361;52.120;5.108;2023-07-20T09:57:16;2.03;;;1.40;;
12591;SDS011;6361;52.120;5.108;2023-07-20T09:59:42;2.33;;;0.80;;
12591;SDS011;6361;52.120;5.108;2023-07-20T10:02:09;2.22;;;0.75;;
12591;SDS011;6361;52.120;5.108;2023-07-20T10:04:45;2.53;;;0.80;;
12591;SDS011;6361;52.120;5.108;2023-07-20T10:07:13;1.10;;;0.90;;
12591;SDS011;6361;52.120;5.108;2023-07-20T10:09:39;3.47;;;0.93;;
12591;SDS011;6361;52.120;5.108;2023-07-20T10:12:08;1.98;;;0.90;;
12591;SDS011;6361;52.120;5.108;2023-07-20T10:14:35;2.83;;;1.10;;
12591;SDS011;6361;52.120;5.108;2023-07-20T10:17:03;0.80;;;0.80;;
12591;SDS011;6361;52.120;5.108;2023-07-20T10:22:12;2.80;;;0.90;;
12591;SDS011;6361;52.120;5.108;2023-07-20T10:24:41;1.65;;;0.90;;
12591;SDS011;6361;52.120;5.108;2023-07-20T10:27:09;1.38;;;0.98;;
12591;SDS011;6361;52.120;5.108;2023-07-20T10:29:35;1.95;;;0.90;;
12591;SDS011;6361;52.120;5.108;2023-07-20T10:32:00;1.20;;;1.10;;
12591;SDS011;6361;52.120;5.108;2023-07-20T10:34:26;1.40;;;1.30;;
12591;SDS011;6361;52.120;5.108;2023-07-20T10:36:51;1.17;;;1.00;;
12591;SDS011;6361;52.120;5.108;2023-07-20T10:39:32;1.48;;;0.80;;
12591;SDS011;6361;52.120;5.108;2023-07-20T10:42:07;2.08;;;1.27;;
12591;SDS011;6361;52.120;5.108;2023-07-20T10:44:33;2.33;;;1.00;;
12591;SDS011;6361;52.120;5.108;2023-07-20T10:47:03;1.35;;;0.80;;
12591;SDS011;6361;52.120;5.108;2023-07-20T10:49:35;1.38;;;0.90;;
12591;SDS011;6361;52.120;5.108;2023-07-20T10:52:04;3.95;;;1.17;;
12591;SDS011;6361;52.120;5.108;2023-07-20T10:56:57;1.85;;;1.00;;
12591;SDS011;6361;52.120;5.108;2023-07-20T11:00:08;1.10;;;1.00;;
12591;SDS011;6361;52.120;5.108;2023-07-20T11:02:48;2.25;;;0.98;;
12591;SDS011;6361;52.120;5.108;2023-07-20T11:05:34;2.95;;;0.90;;
12591;SDS011;6361;52.120;5.108;2023-07-20T11:08:04;1.52;;;1.08;;
12591;SDS011;6361;52.120;5.108;2023-07-20T11:10:30;0.88;;;0.88;;
12591;SDS011;6361;52.120;5.108;2023-07-20T11:18:21;1.52;;;1.00;;
12591;SDS011;6361;52.120;5.108;2023-07-20T11:20:49;1.33;;;0.90;;
12591;SDS011;6361;52.120;5.108;2023-07-20T11:23:15;2.45;;;0.77;;
12591;SDS011;6361;52.120;5.108;2023-07-20T11:25:41;3.92;;;0.88;;
12591;SDS011;6361;52.120;5.108;2023-07-20T11:28:07;1.27;;;0.80;;
12591;SDS011;6361;52.120;5.108;2023-07-20T11:30:34;2.78;;;0.75;;
12591;SDS011;6361;52.120;5.108;2023-07-20T11:32:59;0.77;;;0.68;;
12591;SDS011;6361;52.120;5.108;2023-07-20T11:35:25;1.83;;;0.77;;
12591;SDS011;6361;52.120;5.108;2023-07-20T11:37:50;1.15;;;0.80;;
12591;SDS011;6361;52.120;5.108;2023-07-20T11:40:15;1.63;;;1.00;;
12591;SDS011;6361;52.120;5.108;2023-07-20T11:42:41;2.10;;;1.10;;
12591;SDS011;6361;52.120;5.108;2023-07-20T11:45:06;1.63;;;0.77;;
12591;SDS011;6361;52.120;5.108;2023-07-20T11:47:32;0.70;;;0.70;;
12591;SDS011;6361;52.120;5.108;2023-07-20T11:50:02;1.33;;;0.70;;
12591;SDS011;6361;52.120;5.108;2023-07-20T11:52:28;1.05;;;0.70;;
12591;SDS011;6361;52.120;5.108;2023-07-20T11:54:54;3.42;;;0.77;;
12591;SDS011;6361;52.120;5.108;2023-07-20T11:57:19;1.30;;;0.88;;
12591;SDS011;6361;52.120;5.108;2023-07-20T11:59:55;3.50;;;1.00;;
12591;SDS011;6361;52.120;5.108;2023-07-20T12:02:29;0.80;;;0.80;;
12591;SDS011;6361;52.120;5.108;2023-07-20T12:04:55;2.15;;;0.98;;
12591;SDS011;6361;52.120;5.108;2023-07-20T12:07:21;1.73;;;1.00;;
12591;SDS011;6361;52.120;5.108;2023-07-20T12:12:31;2.10;;;0.90;;
12591;SDS011;6361;52.120;5.108;2023-07-20T12:15:20;2.17;;;0.90;;
12591;SDS011;6361;52.120;5.108;2023-07-20T12:17:49;1.67;;;0.90;;
12591;SDS011;6361;52.120;5.108;2023-07-20T12:22:55;1.25;;;1.10;;
12591;SDS011;6361;52.120;5.108;2023-07-20T12:25:21;2.97;;;1.33;;
12591;SDS011;6361;52.120;5.108;2023-07-20T12:27:47;2.72;;;1.30;;
12591;SDS011;6361;52.120;5.108;2023-07-20T12:30:13;2.97;;;1.15;;
12591;SDS011;6361;52.120;5.108;2023-07-20T12:32:39;1.17;;;0.90;;
12591;SDS011;6361;52.120;5.108;2023-07-20T12:35:04;1.13;;;0.90;;
12591;SDS011;6361;52.120;5.108;2023-07-20T12:37:31;2.50;;;1.30;;
12591;SDS011;6361;52.120;5.108;2023-07-20T12:39:56;3.70;;;1.33;;
12591;SDS011;6361;52.120;5.108;2023-07-20T12:42:22;2.45;;;1.40;;
12591;SDS011;6361;52.120;5.108;2023-07-20T12:44:48;1.55;;;1.45;;
12591;SDS011;6361;52.120;5.108;2023-07-20T12:47:14;1.88;;;1.30;;
12591;SDS011;6361;52.120;5.108;2023-07-20T12:49:41;3.17;;;1.23;;
12591;SDS011;6361;52.120;5.108;2023-07-20T12:52:10;2.60;;;1.25;;
12591;SDS011;6361;52.120;5.108;2023-07-20T12:54:36;2.70;;;1.10;;
12591;SDS011;6361;52.120;5.108;2023-07-20T12:57:01;1.73;;;1.40;;
12591;SDS011;6361;52.120;5.108;2023-07-20T12:59:28;2.28;;;1.35;;
12591;SDS011;6361;52.120;5.108;2023-07-20T13:01:53;1.88;;;1.27;;
12591;SDS011;6361;52.120;5.108;2023-07-20T13:04:19;2.28;;;1.30;;
12591;SDS011;6361;52.120;5.108;2023-07-20T13:06:47;3.30;;;1.40;;
12591;SDS011;6361;52.120;5.108;2023-07-20T13:09:13;3.10;;;1.02;;
12591;SDS011;6361;52.120;5.108;2023-07-20T13:11:38;2.78;;;1.10;;
12591;SDS011;6361;52.120;5.108;2023-07-20T13:14:04;1.52;;;1.27;;
12591;SDS011;6361;52.120;5.108;2023-07-20T13:16:29;3.97;;;1.08;;
12591;SDS011;6361;52.120;5.108;2023-07-20T13:18:55;1.40;;;0.90;;
12591;SDS011;6361;52.120;5.108;2023-07-20T13:21:20;5.30;;;3.10;;
12591;SDS011;6361;52.120;5.108;2023-07-20T13:23:47;2.53;;;1.70;;
12591;SDS011;6361;52.120;5.108;2023-07-20T13:26:13;2.30;;;1.65;;
12591;SDS011;6361;52.120;5.108;2023-07-20T13:28:40;2.03;;;1.50;;
12591;SDS011;6361;52.120;5.108;2023-07-20T13:31:05;2.47;;;1.10;;
12591;SDS011;6361;52.120;5.108;2023-07-20T13:33:31;3.80;;;1.40;;
12591;SDS011;6361;52.120;5.108;2023-07-20T13:35:56;3.22;;;0.93;;
12591;SDS011;6361;52.120;5.108;2023-07-20T13:38:22;3.17;;;0.90;;
12591;SDS011;6361;52.120;5.108;2023-07-20T13:40:47;1.00;;;0.90;;
12591;SDS011;6361;52.120;5.108;2023-07-20T13:43:13;1.58;;;0.85;;
12591;SDS011;6361;52.120;5.108;2023-07-20T13:45:38;1.42;;;0.90;;
12591;SDS011;6361;52.120;5.108;2023-07-20T13:48:03;1.60;;;0.80;;
12591;SDS011;6361;52.120;5.108;2023-07-20T13:50:29;2.75;;;1.00;;
12591;SDS011;6361;52.120;5.108;2023-07-20T13:55:29;1.67;;;0.90;;
12591;SDS011;6361;52.120;5.108;2023-07-20T13:57:56;1.13;;;0.90;;
12591;SDS011;6361;52.120;5.108;2023-07-20T14:00:21;2.53;;;1.55;;
12591;SDS011;6361;52.120;5.108;2023-07-20T14:02:47;2.30;;;1.70;;
12591;SDS011;6361;52.120;5.108;2023-07-20T14:05:12;0.90;;;0.90;;
12591;SDS011;6361;52.120;5.108;2023-07-20T14:07:40;2.17;;;1.02;;
12591;SDS011;6361;52.120;5.108;2023-07-20T14:10:07;1.25;;;0.90;;
12591;SDS011;6361;52.120;5.108;2023-07-20T14:12:32;1.38;;;1.00;;
12591;SDS011;6361;52.120;5.108;2023-07-20T14:14:58;2.35;;;0.80;;
12591;SDS011;6361;52.120;5.108;2023-07-20T14:17:23;0.80;;;0.80;;
12591;SDS011;6361;52.120;5.108;2023-07-20T14:19:49;1.83;;;1.67;;
12591;SDS011;6361;52.120;5.108;2023-07-20T14:22:16;1.48;;;1.30;;
12591;SDS011;6361;52.120;5.108;2023-07-20T14:24:41;2.90;;;1.27;;
12591;SDS011;6361;52.120;5.108;2023-07-20T14:27:06;2.60;;;1.17;;
12591;SDS011;6361;52.120;5.108;2023-07-20T14:29:32;2.20;;;1.00;;
12591;SDS011;6361;52.120;5.108;2023-07-20T14:32:01;1.70;;;1.35;;
12591;SDS011;6361;52.120;5.108;2023-07-20T14:34:26;2.85;;;1.10;;
12591;SDS011;6361;52.120;5.108;2023-07-20T14:36:52;1.65;;;1.00;;
12591;SDS011;6361;52.120;5.108;2023-07-20T14:39:18;1.33;;;0.98;;
12591;SDS011;6361;52.120;5.108;2023-07-20T14:41:44;1.98;;;1.40;;
12591;SDS011;6361;52.120;5.108;2023-07-20T14:44:11;1.00;;;0.90;;
12591;SDS011;6361;52.120;5.108;2023-07-20T14:46:36;1.90;;;0.85;;
12591;SDS011;6361;52.120;5.108;2023-07-20T14:49:01;2.60;;;0.82;;
12591;SDS011;6361;52.120;5.108;2023-07-20T14:51:27;1.38;;;0.90;;
12591;SDS011;6361;52.120;5.108;2023-07-20T14:53:58;1.73;;;0.90;;
12591;SDS011;6361;52.120;5.108;2023-07-20T14:56:24;1.80;;;0.82;;
12591;SDS011;6361;52.120;5.108;2023-07-20T14:58:49;1.42;;;0.80;;
12591;SDS011;6361;52.120;5.108;2023-07-20T15:01:14;0.70;;;0.70;;
12591;SDS011;6361;52.120;5.108;2023-07-20T15:03:40;2.38;;;0.75;;
12591;SDS011;6361;52.120;5.108;2023-07-20T15:06:10;0.93;;;0.70;;
12591;SDS011;6361;52.120;5.108;2023-07-20T15:08:36;0.98;;;0.75;;
12591;SDS011;6361;52.120;5.108;2023-07-20T15:11:01;1.17;;;1.00;;
12591;SDS011;6361;52.120;5.108;2023-07-20T15:13:27;1.33;;;1.10;;
12591;SDS011;6361;52.120;5.108;2023-07-20T15:15:52;0.80;;;0.70;;
12591;SDS011;6361;52.120;5.108;2023-07-20T15:18:18;1.08;;;0.77;;
12591;SDS011;6361;52.120;5.108;2023-07-20T15:20:43;2.15;;;0.80;;
12591;SDS011;6361;52.120;5.108;2023-07-20T15:23:09;0.80;;;0.70;;
12591;SDS011;6361;52.120;5.108;2023-07-20T15:25:35;1.00;;;0.60;;
12591;SDS011;6361;52.120;5.108;2023-07-20T15:28:01;1.20;;;0.77;;